sensor_id;sensor_type;location;lat;lon;timestamp;P1;durP1;ratioP1;P2;durP2;ratioP2
3465;SDS011;1747;48.884;9.160;2023-04-24T00:01:01;2.10;;;0.70;;
3465;SDS011;1747;48.884;9.160;2023-04-24T00:03:28;4.28;;;0.77;;
3465;SDS011;1747;48.884;9.160;2023-04-24T00:05:55;1.85;;;0.90;;
3465;SDS011;1747;48.884;9.160;2023-04-24T00:08:24;1.05;;;0.70;;
3465;SDS011;1747;48.884;9.160;2023-04-24T00:10:51;1.35;;;0.80;;
3465;SDS011;1747;48.884;9.160;2023-04-24T00:13:18;2.35;;;0.70;;
3465;SDS011;1747;48.884;9.160;2023-04-24T00:15:46;0.80;;;0.68;;
3465;SDS011;1747;48.884;9.160;2023-04-24T00:18:13;1.10;;;0.60;;
3465;SDS011;1747;48.884;9.160;2023-04-24T00:20:40;1.90;;;0.55;;
3465;SDS011;1747;48.884;9.160;2023-04-24T00:23:08;0.50;;;0.50;;
3465;SDS011;1747;48.884;9.160;2023-04-24T00:25:35;1.98;;;0.80;;
3465;SDS011;1747;48.884;9.160;2023-04-24T00:28:02;0.60;;;0.50;;
3465;SDS011;1747;48.884;9.160;2023-04-24T00:30:29;0.82;;;0.50;;
3465;SDS011;1747;48.884;9.160;2023-04-24T00:32:57;1.13;;;0.50;;
3465;SDS011;1747;48.884;9.160;2023-04-24T00:35:24;3.58;;;0.60;;
3465;SDS011;1747;48.884;9.160;2023-04-24T00:37:51;1.20;;;0.52;;
3465;SDS011;1747;48.884;9.160;2023-04-24T00:40:18;1.77;;;0.77;;
3465;SDS011;1747;48.884;9.160;2023-04-24T00:42:45;3.63;;;0.55;;
3465;SDS011;1747;48.884;9.160;2023-04-24T00:45:12;0.40;;;0.40;;
3465;SDS011;1747;48.884;9.160;2023-04-24T00:47:39;2.33;;;0.73;;
3465;SDS011;1747;48.884;9.160;2023-04-24T00:50:09;0.63;;;0.50;;
3465;SDS011;1747;48.884;9.160;2023-04-24T00:52:36;0.93;;;0.55;;
3465;SDS011;1747;48.884;9.160;2023-04-24T00:55:05;1.98;;;0.50;;
3465;SDS011;1747;48.884;9.160;2023-04-24T00:57:33;0.90;;;0.57;;
3465;SDS011;1747;48.884;9.160;2023-04-24T01:00:00;1.25;;;0.60;;
3465;SDS011;1747;48.884;9.160;2023-04-24T01:02:28;2.75;;;0.60;;
3465;SDS011;1747;48.884;9.160;2023-04-24T01:04:55;1.00;;;0.40;;
3465;SDS011;1747;48.884;9.160;2023-04-24T01:07:23;1.80;;;0.47;;
3465;SDS011;1747;48.884;9.160;2023-04-24T01:09:51;0.70;;;0.50;;
3465;SDS011;1747;48.884;9.160;2023-04-24T01:12:18;3.05;;;0.95;;
3465;SDS011;1747;48.884;9.160;2023-04-24T01:14:45;0.47;;;0.40;;
3465;SDS011;1747;48.884;9.160;2023-04-24T01:17:12;0.75;;;0.50;;
3465;SDS011;1747;48.884;9.160;2023-04-24T01:19:40;1.52;;;0.60;;
3465;SDS011;1747;48.884;9.160;2023-04-24T01:22:11;1.40;;;0.50;;
3465;SDS011;1747;48.884;9.160;2023-04-24T01:24:39;0.63;;;0.55;;
3465;SDS011;1747;48.884;9.160;2023-04-24T01:27:06;2.45;;;0.70;;
3465;SDS011;1747;48.884;9.160;2023-04-24T01:29:33;1.40;;;0.57;;
3465;SDS011;1747;48.884;9.160;2023-04-24T01:32:00;1.48;;;0.60;;
3465;SDS011;1747;48.884;9.160;2023-04-24T01:34:28;1.45;;;0.57;;
3465;SDS011;1747;48.884;9.160;2023-04-24T01:36:54;0.85;;;0.43;;
3465;SDS011;1747;48.884;9.160;2023-04-24T01:39:23;0.50;;;0.43;;
3465;SDS011;1747;48.884;9.160;2023-04-24T01:41:50;0.50;;;0.50;;
3465;SDS011;1747;48.884;9.160;2023-04-24T01:44:18;0.55;;;0.40;;
3465;SDS011;1747;48.884;9.160;2023-04-24T01:46:45;1.33;;;0.77;;
3465;SDS011;1747;48.884;9.160;2023-04-24T01:49:12;3.92;;;2.03;;
3465;SDS011;1747;48.884;9.160;2023-04-24T01:51:39;1.70;;;0.50;;
3465;SDS011;1747;48.884;9.160;2023-04-24T01:54:06;1.38;;;0.47;;
3465;SDS011;1747;48.884;9.160;2023-04-24T01:56:34;0.70;;;0.60;;
3465;SDS011;1747;48.884;9.160;2023-04-24T01:59:02;0.50;;;0.50;;
3465;SDS011;1747;48.884;9.160;2023-04-24T02:01:33;1.67;;;0.50;;
3465;SDS011;1747;48.884;9.160;2023-04-24T02:04:02;1.05;;;0.60;;
3465;SDS011;1747;48.884;9.160;2023-04-24T02:06:29;0.68;;;0.50;;
3465;SDS011;1747;48.884;9.160;2023-04-24T02:08:56;0.80;;;0.57;;
3465;SDS011;1747;48.884;9.160;2023-04-24T02:11:23;1.80;;;0.50;;
3465;SDS011;1747;48.884;9.160;2023-04-24T02:13:51;1.00;;;0.70;;
3465;SDS011;1747;48.884;9.160;2023-04-24T02:16:18;1.70;;;0.68;;
3465;SDS011;1747;48.884;9.160;2023-04-24T02:18:45;1.20;;;0.60;;
3465;SDS011;1747;48.884;9.160;2023-04-24T02:21:12;1.83;;;0.50;;
3465;SDS011;1747;48.884;9.160;2023-04-24T02:23:38;0.88;;;0.50;;
3465;SDS011;1747;48.884;9.160;2023-04-24T02:26:05;0.98;;;0.60;;
3465;SDS011;1747;48.884;9.160;2023-04-24T02:28:32;1.52;;;0.40;;
3465;SDS011;1747;48.884;9.160;2023-04-24T02:31:00;1.60;;;0.55;;
3465;SDS011;1747;48.884;9.160;2023-04-24T02:33:27;2.10;;;0.63;;
3465;SDS011;1747;48.884;9.160;2023-04-24T02:35:54;1.63;;;0.70;;
3465;SDS011;1747;48.884;9.160;2023-04-24T02:38:21;0.60;;;0.50;;
3465;SDS011;1747;48.884;9.160;2023-04-24T02:40:48;0.77;;;0.60;;
3465;SDS011;1747;48.884;9.160;2023-04-24T02:43:14;1.77;;;0.50;;
3465;SDS011;1747;48.884;9.160;2023-04-24T02:45:41;1.48;;;0.60;;
3465;SDS011;1747;48.884;9.160;2023-04-24T02:48:09;1.23;;;0.70;;
3465;SDS011;1747;48.884;9.160;2023-04-24T02:50:36;1.25;;;0.60;;
3465;SDS011;1747;48.884;9.160;2023-04-24T02:53:03;2.58;;;0.60;;
3465;SDS011;1747;48.884;9.160;2023-04-24T02:55:30;1.80;;;0.63;;
3465;SDS011;1747;48.884;9.160;2023-04-24T02:57:56;2.33;;;0.60;;
3465;SDS011;1747;48.884;9.160;2023-04-24T03:00:23;1.42;;;0.90;;
3465;SDS011;1747;48.884;9.160;2023-04-24T03:02:50;1.38;;;0.50;;
3465;SDS011;1747;48.884;9.160;2023-04-24T03:05:19;0.52;;;0.45;;
3465;SDS011;1747;48.884;9.160;2023-04-24T03:07:46;1.25;;;0.57;;
3465;SDS011;1747;48.884;9.160;2023-04-24T03:10:13;0.82;;;0.40;;
3465;SDS011;1747;48.884;9.160;2023-04-24T03:12:40;1.20;;;0.43;;
3465;SDS011;1747;48.884;9.160;2023-04-24T03:15:07;3.88;;;0.60;;
3465;SDS011;1747;48.884;9.160;2023-04-24T03:17:35;0.75;;;0.60;;
3465;SDS011;1747;48.884;9.160;2023-04-24T03:20:02;0.63;;;0.60;;
3465;SDS011;1747;48.884;9.160;2023-04-24T03:22:31;0.45;;;0.45;;
3465;SDS011;1747;48.884;9.160;2023-04-24T03:24:58;2.63;;;0.57;;
3465;SDS011;1747;48.884;9.160;2023-04-24T03:27:25;1.05;;;0.43;;
3465;SDS011;1747;48.884;9.160;2023-04-24T03:29:52;1.02;;;0.50;;
3465;SDS011;1747;48.884;9.160;2023-04-24T03:32:20;1.25;;;0.40;;
3465;SDS011;1747;48.884;9.160;2023-04-24T03:34:47;2.63;;;0.73;;
3465;SDS011;1747;48.884;9.160;2023-04-24T03:37:14;1.95;;;0.70;;
3465;SDS011;1747;48.884;9.160;2023-04-24T03:39:43;1.05;;;0.55;;
3465;SDS011;1747;48.884;9.160;2023-04-24T03:42:10;1.67;;;0.50;;
3465;SDS011;1747;48.884;9.160;2023-04-24T03:44:36;1.15;;;0.73;;
3465;SDS011;1747;48.884;9.160;2023-04-24T03:47:03;1.17;;;0.60;;
3465;SDS011;1747;48.884;9.160;2023-04-24T03:49:30;1.30;;;0.43;;
3465;SDS011;1747;48.884;9.160;2023-04-24T03:51:57;0.63;;;0.60;;
3465;SDS011;1747;48.884;9.160;2023-04-24T03:54:23;2.25;;;0.60;;
3465;SDS011;1747;48.884;9.160;2023-04-24T03:56:51;0.95;;;0.55;;
3465;SDS011;1747;48.884;9.160;2023-04-24T03:59:18;0.93;;;0.60;;
3465;SDS011;1747;48.884;9.160;2023-04-24T04:01:45;4.47;;;0.70;;
3465;SDS011;1747;48.884;9.160;2023-04-24T04:04:12;2.05;;;0.70;;
3465;SDS011;1747;48.884;9.160;2023-04-24T04:06:39;1.88;;;0.50;;
3465;SDS011;1747;48.884;9.160;2023-04-24T04:09:06;0.88;;;0.55;;
3465;SDS011;1747;48.884;9.160;2023-04-24T04:11:33;1.25;;;0.52;;
3465;SDS011;1747;48.884;9.160;2023-04-24T04:14:02;3.22;;;1.38;;
3465;SDS011;1747;48.884;9.160;2023-04-24T04:16:30;1.75;;;0.47;;
3465;SDS011;1747;48.884;9.160;2023-04-24T04:18:57;1.10;;;0.60;;
3465;SDS011;1747;48.884;9.160;2023-04-24T04:21:24;1.80;;;0.60;;
3465;SDS011;1747;48.884;9.160;2023-04-24T04:23:52;1.77;;;0.82;;
3465;SDS011;1747;48.884;9.160;2023-04-24T04:26:18;3.50;;;0.77;;
3465;SDS011;1747;48.884;9.160;2023-04-24T04:28:46;0.93;;;0.52;;
3465;SDS011;1747;48.884;9.160;2023-04-24T04:31:15;2.40;;;0.60;;
3465;SDS011;1747;48.884;9.160;2023-04-24T04:33:42;1.70;;;0.80;;
3465;SDS011;1747;48.884;9.160;2023-04-24T04:36:08;2.65;;;0.75;;
3465;SDS011;1747;48.884;9.160;2023-04-24T04:38:35;2.25;;;0.63;;
3465;SDS011;1747;48.884;9.160;2023-04-24T04:41:02;1.80;;;0.70;;
3465;SDS011;1747;48.884;9.160;2023-04-24T04:43:30;1.67;;;0.70;;
3465;SDS011;1747;48.884;9.160;2023-04-24T04:45:57;3.17;;;0.98;;
3465;SDS011;1747;48.884;9.160;2023-04-24T04:48:27;1.05;;;0.80;;
3465;SDS011;1747;48.884;9.160;2023-04-24T04:50:53;1.52;;;0.80;;
3465;SDS011;1747;48.884;9.160;2023-04-24T04:53:20;0.80;;;0.75;;
3465;SDS011;1747;48.884;9.160;2023-04-24T04:55:47;1.35;;;0.90;;
3465;SDS011;1747;48.884;9.160;2023-04-24T04:58:14;0.98;;;0.73;;
3465;SDS011;1747;48.884;9.160;2023-04-24T05:00:41;1.63;;;0.82;;
3465;SDS011;1747;48.884;9.160;2023-04-24T05:03:08;2.65;;;0.90;;
3465;SDS011;1747;48.884;9.160;2023-04-24T05:05:37;1.08;;;0.73;;
3465;SDS011;1747;48.884;9.160;2023-04-24T05:08:05;0.80;;;0.80;;
3465;SDS011;1747;48.884;9.160;2023-04-24T05:10:33;1.88;;;1.50;;
3465;SDS011;1747;48.884;9.160;2023-04-24T05:13:01;1.77;;;0.90;;
3465;SDS011;1747;48.884;9.160;2023-04-24T05:15:28;1.88;;;0.80;;
3465;SDS011;1747;48.884;9.160;2023-04-24T05:17:55;4.32;;;1.00;;
3465;SDS011;1747;48.884;9.160;2023-04-24T05:20:23;1.23;;;0.85;;
3465;SDS011;1747;48.884;9.160;2023-04-24T05:22:51;0.90;;;0.77;;
3465;SDS011;1747;48.884;9.160;2023-04-24T05:25:18;1.95;;;0.77;;
3465;SDS011;1747;48.884;9.160;2023-04-24T05:27:45;1.30;;;1.20;;
3465;SDS011;1747;48.884;9.160;2023-04-24T05:30:12;3.15;;;1.20;;
3465;SDS011;1747;48.884;9.160;2023-04-24T05:32:39;2.70;;;1.17;;
3465;SDS011;1747;48.884;9.160;2023-04-24T05:35:06;1.00;;;0.90;;
3465;SDS011;1747;48.884;9.160;2023-04-24T05:37:34;1.02;;;0.90;;
3465;SDS011;1747;48.884;9.160;2023-04-24T05:40:02;2.08;;;1.10;;
3465;SDS011;1747;48.884;9.160;2023-04-24T05:42:30;1.23;;;1.10;;
3465;SDS011;1747;48.884;9.160;2023-04-24T05:44:57;2.38;;;1.20;;
3465;SDS011;1747;48.884;9.160;2023-04-24T05:47:24;1.10;;;1.00;;
3465;SDS011;1747;48.884;9.160;2023-04-24T05:49:51;1.40;;;1.30;;
3465;SDS011;1747;48.884;9.160;2023-04-24T05:52:18;2.45;;;1.27;;
3465;SDS011;1747;48.884;9.160;2023-04-24T05:54:45;6.03;;;1.17;;
3465;SDS011;1747;48.884;9.160;2023-04-24T05:57:13;2.08;;;1.40;;
3465;SDS011;1747;48.884;9.160;2023-04-24T05:59:40;2.25;;;1.20;;
3465;SDS011;1747;48.884;9.160;2023-04-24T06:02:07;3.00;;;1.30;;
3465;SDS011;1747;48.884;9.160;2023-04-24T06:04:34;1.30;;;1.10;;
3465;SDS011;1747;48.884;9.160;2023-04-24T06:07:01;1.33;;;1.08;;
3465;SDS011;1747;48.884;9.160;2023-04-24T06:09:28;1.30;;;1.20;;
3465;SDS011;1747;48.884;9.160;2023-04-24T06:11:54;2.22;;;1.20;;
3465;SDS011;1747;48.884;9.160;2023-04-24T06:14:23;2.90;;;1.65;;
3465;SDS011;1747;48.884;9.160;2023-04-24T06:16:50;1.85;;;1.35;;
3465;SDS011;1747;48.884;9.160;2023-04-24T06:19:17;1.73;;;1.52;;
3465;SDS011;1747;48.884;9.160;2023-04-24T06:21:44;2.72;;;1.33;;
3465;SDS011;1747;48.884;9.160;2023-04-24T06:24:13;2.08;;;1.40;;
3465;SDS011;1747;48.884;9.160;2023-04-24T06:26:41;1.98;;;1.42;;
3465;SDS011;1747;48.884;9.160;2023-04-24T07:15:38;2.70;;;1.80;;
3465;SDS011;1747;48.884;9.160;2023-04-24T07:18:06;2.58;;;1.58;;
3465;SDS011;1747;48.884;9.160;2023-04-24T07:20:33;1.80;;;1.60;;
3465;SDS011;1747;48.884;9.160;2023-04-24T07:23:00;4.40;;;1.65;;
3465;SDS011;1747;48.884;9.160;2023-04-24T07:25:27;2.42;;;1.52;;
3465;SDS011;1747;48.884;9.160;2023-04-24T07:27:54;2.28;;;1.75;;
3465;SDS011;1747;48.884;9.160;2023-04-24T07:30:20;1.92;;;1.30;;
3465;SDS011;1747;48.884;9.160;2023-04-24T07:32:49;2.95;;;1.63;;
3465;SDS011;1747;48.884;9.160;2023-04-24T07:35:15;1.60;;;1.38;;
3465;SDS011;1747;48.884;9.160;2023-04-24T07:37:42;1.75;;;1.48;;
3465;SDS011;1747;48.884;9.160;2023-04-24T07:40:11;2.53;;;1.30;;
3465;SDS011;1747;48.884;9.160;2023-04-24T07:42:38;1.45;;;1.30;;
3465;SDS011;1747;48.884;9.160;2023-04-24T07:45:05;1.38;;;1.25;;
3465;SDS011;1747;48.884;9.160;2023-04-24T07:47:32;4.00;;;1.70;;
3465;SDS011;1747;48.884;9.160;2023-04-24T07:50:01;3.53;;;1.55;;
3465;SDS011;1747;48.884;9.160;2023-04-24T07:52:28;3.28;;;1.55;;
3465;SDS011;1747;48.884;9.160;2023-04-24T07:54:55;3.13;;;1.50;;
3465;SDS011;1747;48.884;9.160;2023-04-24T07:57:25;3.60;;;1.35;;
3465;SDS011;1747;48.884;9.160;2023-04-24T07:59:52;1.25;;;1.15;;
3465;SDS011;1747;48.884;9.160;2023-04-24T08:02:18;1.88;;;1.40;;
3465;SDS011;1747;48.884;9.160;2023-04-24T08:04:46;2.50;;;1.20;;
3465;SDS011;1747;48.884;9.160;2023-04-24T08:07:14;2.55;;;1.30;;
3465;SDS011;1747;48.884;9.160;2023-04-24T08:09:42;4.75;;;1.50;;
3465;SDS011;1747;48.884;9.160;2023-04-24T08:12:08;2.72;;;1.35;;
3465;SDS011;1747;48.884;9.160;2023-04-24T08:14:35;1.83;;;1.20;;
3465;SDS011;1747;48.884;9.160;2023-04-24T08:17:02;1.10;;;1.00;;
3465;SDS011;1747;48.884;9.160;2023-04-24T08:19:29;2.33;;;1.10;;
3465;SDS011;1747;48.884;9.160;2023-04-24T08:21:56;2.17;;;1.30;;
3465;SDS011;1747;48.884;9.160;2023-04-24T08:24:24;2.83;;;1.40;;
3465;SDS011;1747;48.884;9.160;2023-04-24T08:26:51;2.33;;;1.38;;
3465;SDS011;1747;48.884;9.160;2023-04-24T08:29:19;2.17;;;1.40;;
3465;SDS011;1747;48.884;9.160;2023-04-24T08:31:46;2.22;;;1.30;;
3465;SDS011;1747;48.884;9.160;2023-04-24T08:34:13;3.72;;;1.30;;
3465;SDS011;1747;48.884;9.160;2023-04-24T08:36:40;3.80;;;1.38;;
3465;SDS011;1747;48.884;9.160;2023-04-24T08:39:07;1.45;;;1.30;;
3465;SDS011;1747;48.884;9.160;2023-04-24T08:41:35;3.20;;;1.05;;
3465;SDS011;1747;48.884;9.160;2023-04-24T08:44:03;2.00;;;1.23;;
3465;SDS011;1747;48.884;9.160;2023-04-24T08:46:30;1.48;;;1.10;;
3465;SDS011;1747;48.884;9.160;2023-04-24T08:48:57;1.00;;;0.90;;
3465;SDS011;1747;48.884;9.160;2023-04-24T08:51:25;1.42;;;1.13;;
3465;SDS011;1747;48.884;9.160;2023-04-24T08:53:53;1.52;;;1.05;;
3465;SDS011;1747;48.884;9.160;2023-04-24T08:56:21;1.90;;;1.00;;
3465;SDS011;1747;48.884;9.160;2023-04-24T08:58:50;2.88;;;0.95;;
3465;SDS011;1747;48.884;9.160;2023-04-24T09:01:18;2.40;;;1.00;;
3465;SDS011;1747;48.884;9.160;2023-04-24T09:03:46;1.98;;;0.95;;
3465;SDS011;1747;48.884;9.160;2023-04-24T09:06:15;1.08;;;1.02;;
3465;SDS011;1747;48.884;9.160;2023-04-24T09:08:43;2.35;;;1.17;;
3465;SDS011;1747;48.884;9.160;2023-04-24T09:11:11;1.20;;;0.90;;
3465;SDS011;1747;48.884;9.160;2023-04-24T09:13:38;4.05;;;1.15;;
3465;SDS011;1747;48.884;9.160;2023-04-24T09:16:06;2.15;;;1.30;;
3465;SDS011;1747;48.884;9.160;2023-04-24T09:18:33;1.73;;;1.15;;
3465;SDS011;1747;48.884;9.160;2023-04-24T09:21:00;4.53;;;1.17;;
3465;SDS011;1747;48.884;9.160;2023-04-24T09:23:29;1.02;;;0.90;;
3465;SDS011;1747;48.884;9.160;2023-04-24T09:25:58;0.70;;;0.63;;
3465;SDS011;1747;48.884;9.160;2023-04-24T09:28:26;1.02;;;0.77;;
3465;SDS011;1747;48.884;9.160;2023-04-24T09:31:02;2.22;;;0.80;;
3465;SDS011;1747;48.884;9.160;2023-04-24T09:33:31;1.20;;;0.90;;
3465;SDS011;1747;48.884;9.160;2023-04-24T09:35:58;1.40;;;0.98;;
3465;SDS011;1747;48.884;9.160;2023-04-24T09:38:30;3.00;;;0.95;;
3465;SDS011;1747;48.884;9.160;2023-04-24T09:40:58;1.15;;;0.90;;
3465;SDS011;1747;48.884;9.160;2023-04-24T09:43:27;1.35;;;0.80;;
3465;SDS011;1747;48.884;9.160;2023-04-24T09:45:55;1.50;;;1.05;;
3465;SDS011;1747;48.884;9.160;2023-04-24T09:48:29;0.95;;;0.77;;
3465;SDS011;1747;48.884;9.160;2023-04-24T09:50:59;1.17;;;0.73;;
3465;SDS011;1747;48.884;9.160;2023-04-24T09:53:27;1.50;;;0.93;;
3465;SDS011;1747;48.884;9.160;2023-04-24T09:55:54;2.15;;;1.05;;
3465;SDS011;1747;48.884;9.160;2023-04-24T09:58:24;1.48;;;0.82;;
3465;SDS011;1747;48.884;9.160;2023-04-24T10:00:53;1.50;;;1.00;;
3465;SDS011;1747;48.884;9.160;2023-04-24T10:03:23;2.60;;;1.08;;
3465;SDS011;1747;48.884;9.160;2023-04-24T10:05:53;2.17;;;1.10;;
3465;SDS011;1747;48.884;9.160;2023-04-24T10:08:20;1.50;;;1.23;;
3465;SDS011;1747;48.884;9.160;2023-04-24T10:10:47;2.75;;;1.52;;
3465;SDS011;1747;48.884;9.160;2023-04-24T10:13:14;1.88;;;1.25;;
3465;SDS011;1747;48.884;9.160;2023-04-24T10:15:41;1.55;;;1.20;;
3465;SDS011;1747;48.884;9.160;2023-04-24T10:18:09;1.35;;;0.98;;
3465;SDS011;1747;48.884;9.160;2023-04-24T10:20:37;3.05;;;1.30;;
3465;SDS011;1747;48.884;9.160;2023-04-24T10:23:06;3.45;;;1.00;;
3465;SDS011;1747;48.884;9.160;2023-04-24T10:25:33;2.65;;;1.27;;
3465;SDS011;1747;48.884;9.160;2023-04-24T10:28:01;2.60;;;1.17;;
3465;SDS011;1747;48.884;9.160;2023-04-24T10:30:29;3.15;;;1.20;;
3465;SDS011;1747;48.884;9.160;2023-04-24T10:33:00;1.55;;;1.25;;
3465;SDS011;1747;48.884;9.160;2023-04-24T10:35:27;1.88;;;1.20;;
3465;SDS011;1747;48.884;9.160;2023-04-24T10:37:58;2.03;;;1.25;;
3465;SDS011;1747;48.884;9.160;2023-04-24T10:40:31;1.92;;;1.05;;
3465;SDS011;1747;48.884;9.160;2023-04-24T10:43:01;1.73;;;1.20;;
3465;SDS011;1747;48.884;9.160;2023-04-24T10:45:31;1.58;;;1.30;;
3465;SDS011;1747;48.884;9.160;2023-04-24T10:47:58;3.08;;;1.40;;
3465;SDS011;1747;48.884;9.160;2023-04-24T10:50:26;1.70;;;1.40;;
3465;SDS011;1747;48.884;9.160;2023-04-24T10:53:05;1.38;;;1.15;;
3465;SDS011;1747;48.884;9.160;2023-04-24T10:55:44;3.55;;;1.23;;
3465;SDS011;1747;48.884;9.160;2023-04-24T10:58:14;1.67;;;1.23;;
3465;SDS011;1747;48.884;9.160;2023-04-24T11:00:41;1.58;;;1.42;;
3465;SDS011;1747;48.884;9.160;2023-04-24T11:03:22;1.40;;;1.17;;
3465;SDS011;1747;48.884;9.160;2023-04-24T11:05:51;1.63;;;1.30;;
3465;SDS011;1747;48.884;9.160;2023-04-24T11:08:22;2.00;;;1.45;;
3465;SDS011;1747;48.884;9.160;2023-04-24T11:11:01;2.42;;;1.15;;
3465;SDS011;1747;48.884;9.160;2023-04-24T11:16:35;2.50;;;1.02;;
3465;SDS011;1747;48.884;9.160;2023-04-24T11:19:10;1.13;;;1.02;;
3465;SDS011;1747;48.884;9.160;2023-04-24T11:21:45;1.98;;;1.20;;
3465;SDS011;1747;48.884;9.160;2023-04-24T11:24:23;3.35;;;1.40;;
3465;SDS011;1747;48.884;9.160;2023-04-24T11:26:53;2.78;;;1.23;;
3465;SDS011;1747;48.884;9.160;2023-04-24T11:29:20;2.58;;;1.40;;
3465;SDS011;1747;48.884;9.160;2023-04-24T11:31:47;1.90;;;1.50;;
3465;SDS011;1747;48.884;9.160;2023-04-24T11:34:16;2.58;;;1.73;;
3465;SDS011;1747;48.884;9.160;2023-04-24T11:36:44;1.50;;;1.40;;
3465;SDS011;1747;48.884;9.160;2023-04-24T11:39:11;2.70;;;1.65;;
3465;SDS011;1747;48.884;9.160;2023-04-24T11:41:38;4.35;;;1.63;;
3465;SDS011;1747;48.884;9.160;2023-04-24T11:44:08;1.45;;;1.30;;
3465;SDS011;1747;48.884;9.160;2023-04-24T11:46:36;1.85;;;1.50;;
3465;SDS011;1747;48.884;9.160;2023-04-24T11:49:05;1.70;;;1.10;;
3465;SDS011;1747;48.884;9.160;2023-04-24T11:51:32;1.17;;;1.00;;
3465;SDS011;1747;48.884;9.160;2023-04-24T11:54:00;2.50;;;1.10;;
3465;SDS011;1747;48.884;9.160;2023-04-24T11:56:27;1.20;;;0.95;;
3465;SDS011;1747;48.884;9.160;2023-04-24T11:58:53;1.42;;;1.20;;
3465;SDS011;1747;48.884;9.160;2023-04-24T12:01:22;1.38;;;1.00;;
3465;SDS011;1747;48.884;9.160;2023-04-24T12:03:49;2.47;;;1.45;;
3465;SDS011;1747;48.884;9.160;2023-04-24T12:06:17;1.30;;;1.10;;
3465;SDS011;1747;48.884;9.160;2023-04-24T12:08:45;2.45;;;1.45;;
3465;SDS011;1747;48.884;9.160;2023-04-24T12:11:14;2.17;;;1.48;;
3465;SDS011;1747;48.884;9.160;2023-04-24T12:13:43;1.67;;;1.40;;
3465;SDS011;1747;48.884;9.160;2023-04-24T12:16:10;2.40;;;1.35;;
3465;SDS011;1747;48.884;9.160;2023-04-24T12:18:42;1.55;;;1.38;;
3465;SDS011;1747;48.884;9.160;2023-04-24T12:21:17;1.80;;;1.42;;
3465;SDS011;1747;48.884;9.160;2023-04-24T12:23:45;4.28;;;1.50;;
3465;SDS011;1747;48.884;9.160;2023-04-24T12:26:12;3.13;;;1.42;;
3465;SDS011;1747;48.884;9.160;2023-04-24T12:28:43;2.15;;;1.30;;
3465;SDS011;1747;48.884;9.160;2023-04-24T12:31:13;2.08;;;1.35;;
3465;SDS011;1747;48.884;9.160;2023-04-24T12:33:40;2.50;;;1.10;;
3465;SDS011;1747;48.884;9.160;2023-04-24T12:36:10;2.72;;;1.17;;
3465;SDS011;1747;48.884;9.160;2023-04-24T12:38:38;1.67;;;1.13;;
3465;SDS011;1747;48.884;9.160;2023-04-24T12:41:06;1.90;;;1.27;;
3465;SDS011;1747;48.884;9.160;2023-04-24T12:43:34;2.80;;;1.27;;
3465;SDS011;1747;48.884;9.160;2023-04-24T12:46:01;1.23;;;1.13;;
3465;SDS011;1747;48.884;9.160;2023-04-24T12:48:29;1.45;;;1.35;;
3465;SDS011;1747;48.884;9.160;2023-04-24T12:50:56;1.92;;;1.30;;
3465;SDS011;1747;48.884;9.160;2023-04-24T12:53:27;2.67;;;1.27;;
3465;SDS011;1747;48.884;9.160;2023-04-24T12:55:56;2.75;;;1.20;;
3465;SDS011;1747;48.884;9.160;2023-04-24T12:58:23;2.20;;;1.40;;
3465;SDS011;1747;48.884;9.160;2023-04-24T13:00:49;2.15;;;1.10;;
3465;SDS011;1747;48.884;9.160;2023-04-24T13:03:17;0.90;;;0.90;;
3465;SDS011;1747;48.884;9.160;2023-04-24T13:05:44;1.63;;;1.10;;
3465;SDS011;1747;48.884;9.160;2023-04-24T13:08:11;2.13;;;1.15;;
3465;SDS011;1747;48.884;9.160;2023-04-24T13:10:40;1.98;;;1.30;;
3465;SDS011;1747;48.884;9.160;2023-04-24T13:13:07;1.67;;;1.45;;
3465;SDS011;1747;48.884;9.160;2023-04-24T13:15:34;2.47;;;1.60;;
3465;SDS011;1747;48.884;9.160;2023-04-24T13:18:01;2.13;;;1.25;;
3465;SDS011;1747;48.884;9.160;2023-04-24T13:20:28;2.72;;;1.73;;
3465;SDS011;1747;48.884;9.160;2023-04-24T13:22:55;2.65;;;1.75;;
3465;SDS011;1747;48.884;9.160;2023-04-24T13:25:21;2.83;;;1.80;;
3465;SDS011;1747;48.884;9.160;2023-04-24T13:27:51;2.63;;;1.88;;
3465;SDS011;1747;48.884;9.160;2023-04-24T13:30:18;3.83;;;1.98;;
3465;SDS011;1747;48.884;9.160;2023-04-24T13:32:45;3.58;;;1.98;;
3465;SDS011;1747;48.884;9.160;2023-04-24T13:35:11;1.80;;;1.70;;
3465;SDS011;1747;48.884;9.160;2023-04-24T13:37:38;3.13;;;1.80;;
3465;SDS011;1747;48.884;9.160;2023-04-24T13:40:05;2.50;;;1.98;;
3465;SDS011;1747;48.884;9.160;2023-04-24T13:42:33;2.08;;;1.75;;
3465;SDS011;1747;48.884;9.160;2023-04-24T13:45:01;3.15;;;1.83;;
3465;SDS011;1747;48.884;9.160;2023-04-24T13:47:30;2.90;;;2.17;;
3465;SDS011;1747;48.884;9.160;2023-04-24T13:49:57;2.60;;;1.92;;
3465;SDS011;1747;48.884;9.160;2023-04-24T13:52:23;2.15;;;1.65;;
3465;SDS011;1747;48.884;9.160;2023-04-24T13:54:50;3.15;;;1.70;;
3465;SDS011;1747;48.884;9.160;2023-04-24T13:57:17;2.40;;;1.73;;
3465;SDS011;1747;48.884;9.160;2023-04-24T13:59:44;1.83;;;1.70;;
3465;SDS011;1747;48.884;9.160;2023-04-24T14:02:13;2.20;;;1.65;;
3465;SDS011;1747;48.884;9.160;2023-04-24T14:04:39;2.33;;;1.73;;
3465;SDS011;1747;48.884;9.160;2023-04-24T14:07:06;2.42;;;1.73;;
3465;SDS011;1747;48.884;9.160;2023-04-24T14:09:34;2.60;;;1.95;;
3465;SDS011;1747;48.884;9.160;2023-04-24T14:12:00;2.28;;;1.70;;
3465;SDS011;1747;48.884;9.160;2023-04-24T14:14:28;4.10;;;1.92;;
3465;SDS011;1747;48.884;9.160;2023-04-24T14:16:55;4.13;;;2.08;;
3465;SDS011;1747;48.884;9.160;2023-04-24T14:19:24;3.45;;;1.88;;
3465;SDS011;1747;48.884;9.160;2023-04-24T14:21:51;1.95;;;1.65;;
3465;SDS011;1747;48.884;9.160;2023-04-24T14:24:18;3.33;;;1.83;;
3465;SDS011;1747;48.884;9.160;2023-04-24T14:26:45;2.72;;;1.45;;
3465;SDS011;1747;48.884;9.160;2023-04-24T14:29:12;1.88;;;1.60;;
3465;SDS011;1747;48.884;9.160;2023-04-24T14:31:40;1.70;;;1.55;;
3465;SDS011;1747;48.884;9.160;2023-04-24T14:34:07;2.33;;;2.13;;
3465;SDS011;1747;48.884;9.160;2023-04-24T14:36:36;2.80;;;1.60;;
3465;SDS011;1747;48.884;9.160;2023-04-24T14:39:03;2.50;;;1.70;;
3465;SDS011;1747;48.884;9.160;2023-04-24T14:41:31;3.25;;;2.10;;
3465;SDS011;1747;48.884;9.160;2023-04-24T14:44:00;3.92;;;1.77;;
3465;SDS011;1747;48.884;9.160;2023-04-24T14:46:27;2.17;;;1.58;;
3465;SDS011;1747;48.884;9.160;2023-04-24T14:48:57;2.97;;;1.60;;
3465;SDS011;1747;48.884;9.160;2023-04-24T14:51:24;2.75;;;1.70;;
3465;SDS011;1747;48.884;9.160;2023-04-24T14:53:53;2.85;;;1.38;;
3465;SDS011;1747;48.884;9.160;2023-04-24T14:56:20;3.22;;;1.40;;
3465;SDS011;1747;48.884;9.160;2023-04-24T14:58:47;1.50;;;1.40;;
3465;SDS011;1747;48.884;9.160;2023-04-24T15:01:14;1.52;;;1.05;;
3465;SDS011;1747;48.884;9.160;2023-04-24T15:03:40;1.60;;;1.08;;
3465;SDS011;1747;48.884;9.160;2023-04-24T15:06:07;3.45;;;1.13;;
3465;SDS011;1747;48.884;9.160;2023-04-24T15:08:34;2.05;;;1.75;;
3465;SDS011;1747;48.884;9.160;2023-04-24T15:11:02;2.95;;;1.50;;
3465;SDS011;1747;48.884;9.160;2023-04-24T15:13:30;2.53;;;1.50;;
3465;SDS011;1747;48.884;9.160;2023-04-24T15:15:57;1.85;;;1.65;;
3465;SDS011;1747;48.884;9.160;2023-04-24T15:18:24;1.38;;;1.27;;
3465;SDS011;1747;48.884;9.160;2023-04-24T15:20:52;1.73;;;1.63;;
3465;SDS011;1747;48.884;9.160;2023-04-24T15:23:19;2.05;;;1.50;;
3465;SDS011;1747;48.884;9.160;2023-04-24T15:25:46;2.08;;;1.55;;
3465;SDS011;1747;48.884;9.160;2023-04-24T15:28:15;2.20;;;1.50;;
3465;SDS011;1747;48.884;9.160;2023-04-24T15:30:42;2.17;;;1.38;;
3465;SDS011;1747;48.884;9.160;2023-04-24T15:33:09;3.42;;;1.63;;
3465;SDS011;1747;48.884;9.160;2023-04-24T15:35:36;3.50;;;2.50;;
3465;SDS011;1747;48.884;9.160;2023-04-24T15:38:03;1.83;;;1.15;;
3465;SDS011;1747;48.884;9.160;2023-04-24T15:40:30;2.72;;;1.88;;
3465;SDS011;1747;48.884;9.160;2023-04-24T15:42:57;1.73;;;1.13;;
3465;SDS011;1747;48.884;9.160;2023-04-24T15:45:25;3.05;;;1.80;;
3465;SDS011;1747;48.884;9.160;2023-04-24T15:47:52;2.35;;;0.80;;
3465;SDS011;1747;48.884;9.160;2023-04-24T15:50:19;4.50;;;3.88;;
3465;SDS011;1747;48.884;9.160;2023-04-24T15:52:46;2.30;;;1.50;;
3465;SDS011;1747;48.884;9.160;2023-04-24T15:55:13;3.85;;;2.67;;
3465;SDS011;1747;48.884;9.160;2023-04-24T15:57:41;3.58;;;2.17;;
3465;SDS011;1747;48.884;9.160;2023-04-24T16:00:08;2.20;;;2.05;;
3465;SDS011;1747;48.884;9.160;2023-04-24T16:02:38;1.70;;;1.60;;
3465;SDS011;1747;48.884;9.160;2023-04-24T16:05:06;2.65;;;2.40;;
3465;SDS011;1747;48.884;9.160;2023-04-24T16:07:33;2.42;;;1.80;;